< < Back
Terminal Aerodrome Forecast


Current Version              Previous Versions:   1  2  3  4  5  6  7  8  9  

Terminal Aerodrome Forecast

615
FTUS44 KMOB 202300
TAFPNS
TAF
KPNS 202338Z 2100/2124 05005KT P6SM OVC026
     FM210300 08003KT P6SM SCT025 SCT250
     FM210900 06003KT 4SM BR BKN025 OVC250
     FM211400 14008KT P6SM SCT025 SCT250=

Latest METAR

055
SAUS70 KWBC 211000 RRC
MTRPNS
METAR KPNS 210953Z AUTO 00000KT 7SM CLR 12/11 A3012 RMK AO2 SLP200
T01220106


USA.gov is the U.S. government's official web portal to all federal, state and local government web resources and services.